Latest Weather Observations for Port Fairy

IDV60801

Issued at 1:02 pm EST Tuesday 5 May 2015 (issued every 30 minutes, with the page automatically refreshed every 10 minutes)

About weather observations | Map of weather stations | Latest weather observations for VIC | Other Formats
Station Details ID: 090175 Name: PORT FAIRY AWS Lat: -38.39 Lon: 142.23 Height: 10.0 m
Data from the previous 72 hours. | See also: Recent months at Port Fairy
Date/Time
EST
Temp
°C
App
Temp
°C
Dew
Point
Rel
Hum
%
Delta-T
°C
Wind Press
QNH
hPa
Press
MSL
hPa
Rain
since 9 am
mm
Dir
 
Spd
km/h
Gust
km/h
Spd
kts
Gust
kts
05/01:00pm 14.3 8.3 7.1 62 3.5 WNW 28 56 15 30 997.7 997.7 0.4
05/12:30pm 12.6 6.2 7.1 69 2.7 NW 30 59 16 32 997.7 997.7 0.4
05/12:19pm 13.4 7.7 8.5 72 2.5 NW 28 48 15 26 997.9 997.9 0.4
05/12:00pm 11.8 6.6 8.8 82 1.5 NW 26 46 14 25 998.2 998.2 0.4
05/11:30am 12.9 6.1 7.1 68 2.8 NW 32 56 17 30 997.7 997.7 0.0
05/11:00am 11.6 5.1 6.3 70 2.5 NNW 30 54 16 29 997.3 997.3 0.0
05/10:31am 11.5 4.9 6.0 69 2.6 NW 30 48 16 26 997.2 997.2 0.0
05/10:30am 11.5 4.5 6.0 69 2.6 NW 32 48 17 26 997.2 997.2 0.0
05/10:20am 11.7 4.7 6.0 68 2.7 NW 32 50 17 27 997.2 997.2 0.0
05/10:00am 11.2 5.8 6.5 73 2.2 NW 24 43 13 23 997.0 997.0 0.0
05/09:30am 11.3 5.8 7.4 77 1.9 NW 26 44 14 24 997.0 997.0 0.0
05/09:00am 10.7 6.0 7.9 83 1.4 NNW 22 39 12 21 997.2 997.2 1.8
05/08:30am 10.8 6.6 8.4 85 1.2 NW 20 37 11 20 997.2 997.2 1.8
05/08:00am 10.9 6.3 8.3 84 1.3 NNW 22 54 12 29 996.9 996.9 1.8
05/07:30am 11.1 7.0 8.7 85 1.2 NNW 20 35 11 19 996.4 996.4 1.8
05/07:00am 11.0 7.2 8.9 87 1.0 NNW 19 28 10 15 996.6 996.6 1.8
05/06:30am 11.8 7.7 8.8 82 1.5 NW 20 33 11 18 997.1 997.1 1.4
05/06:00am 13.1 7.8 8.6 74 2.3 WNW 26 48 14 26 996.7 996.7 1.4
05/05:58am 13.1 7.5 8.6 74 2.2 NW 28 48 15 26 996.7 996.7 1.4
05/05:30am 13.5 8.3 9.0 74 2.3 NW 26 44 14 24 996.4 996.4 1.4
05/05:22am 13.6 8.1 9.3 75 2.2 NW 28 48 15 26 996.9 996.9 1.4
05/05:00am 13.6 10.3 10.8 83 1.5 NW 19 32 10 17 996.5 996.5 1.4
05/04:30am 13.9 9.3 11.2 84 1.4 NNW 26 39 14 21 995.9 995.9 1.4
05/04:14am 13.8 9.0 11.7 87 1.1 NNW 28 50 15 27 996.1 996.1 1.4
05/04:00am 14.0 8.9 12.0 88 1.1 NNW 30 46 16 25 996.5 996.5 1.4
05/03:35am 14.2 9.5 11.9 86 1.2 NNW 28 52 15 28 997.0 997.0 1.2
05/03:30am 14.3 9.9 11.8 85 1.3 NNW 26 41 14 22 997.2 997.2 1.2
05/03:05am 14.7 9.9 11.7 82 1.6 NW 28 52 15 28 997.4 997.4 1.0
05/03:00am 15.0 11.5 12.1 83 1.6 NW 22 33 12 18 997.6 997.6 0.8
05/02:30am 16.4 13.4 10.7 69 3.0 NW 17 28 9 15 998.1 998.1 0.4
05/02:00am 16.9 13.1 9.8 63 3.8 N 20 33 11 18 997.9 997.9 0.4
05/01:30am 16.8 12.7 10.2 65 3.5 NNW 22 37 12 20 997.9 997.9 0.4
05/01:00am 16.5 11.1 10.8 69 3.1 N 30 48 16 26 998.4 998.4 0.4
05/12:30am 16.9 10.8 10.5 66 3.4 N 33 56 18 30 998.4 998.4 0.4
05/12:00am 16.6 10.6 10.7 68 3.2 N 33 54 18 29 999.1 999.1 0.4
 
Date/Time
EST
Temp
°C
App
Temp
°C
Dew
Point
Rel
Hum
%
Delta-T
°C
Wind Press
QNH
hPa
Press
MSL
hPa
Rain
since 9 am
mm
Dir
 
Spd
km/h
Gust
km/h
Spd
kts
Gust
kts
04/11:34pm 16.9 10.8 10.5 66 3.4 N 33 52 18 28 1000.2 1000.2 0.4
04/11:30pm 16.9 11.0 10.5 66 3.4 N 32 48 17 26 1000.3 1000.3 0.4
04/11:13pm 17.3 10.8 10.4 64 3.7 N 35 54 19 29 1000.7 1000.7 0.4
04/11:00pm 17.2 11.6 10.3 64 3.7 N 30 46 16 25 1000.9 1000.9 0.4
04/10:30pm 17.4 11.3 10.3 63 3.8 N 33 50 18 27 1001.6 1001.6 0.4
04/10:16pm 17.2 11.7 10.6 65 3.5 N 30 48 16 26 1001.6 1001.6 0.4
04/10:00pm 16.9 12.6 10.7 67 3.3 N 24 35 13 19 1001.8 1001.8 0.4
04/09:30pm 17.4 12.4 10.8 65 3.6 NNW 28 48 15 26 1002.2 1002.2 0.4
04/09:25pm 17.8 12.6 10.4 62 4.0 NNW 28 48 15 26 1002.4 1002.4 0.2
04/09:00pm 18.9 14.2 9.4 54 5.0 NNW 24 44 13 24 1002.4 1002.4 0.0
04/08:30pm 19.4 15.0 7.5 46 6.1 N 20 35 11 19 1002.4 1002.4 0.0
04/08:00pm 18.8 14.6 7.3 47 5.8 N 19 30 10 16 1001.5 1001.5 0.0
04/07:30pm 18.7 15.2 7.2 47 5.8 N 15 20 8 11 1001.3 1001.3 0.0
04/07:00pm 19.5 15.3 7.3 45 6.2 N 19 30 10 16 1001.5 1001.5 0.0
04/06:30pm 20.2 15.9 7.2 43 6.6 N 19 28 10 15 1001.7 1001.7 0.0
04/06:00pm 20.8 16.4 7.4 42 6.9 N 20 30 11 16 1001.8 1001.8 0.0
04/05:30pm 21.2 16.4 7.4 41 7.1 N 22 32 12 17 1002.4 1002.4 0.0
04/05:00pm 21.6 17.9 8.1 42 7.1 N 17 32 9 17 1002.9 1002.9 0.0
04/04:30pm 21.0 17.5 8.9 46 6.4 NNE 17 28 9 15 1003.1 1003.1 0.0
04/04:00pm 21.5 17.0 8.4 43 6.9 N 22 33 12 18 1004.2 1004.2 0.0
04/03:30pm 21.2 16.8 9.1 46 6.4 N 22 33 12 18 1004.5 1004.5 0.0
04/03:00pm 21.1 17.3 9.7 48 6.1 N 20 32 11 17 1005.2 1005.2 0.0
04/02:30pm 20.8 17.2 9.7 49 5.9 N 19 32 10 17 1005.4 1005.4 0.0
04/02:00pm 20.8 16.5 9.4 48 6.1 N 22 37 12 20 1006.3 1006.3 0.0
04/01:39pm 21.1 15.6 9.0 46 6.4 N 28 48 15 26 1006.9 1006.9 0.0
04/01:30pm 21.7 17.2 10.2 48 6.3 N 24 37 13 20 1007.2 1007.2 0.0
04/01:00pm 21.4 17.4 10.3 49 6.0 N 22 35 12 19 1008.2 1008.2 0.0
04/12:30pm 20.3 15.7 9.8 51 5.6 N 24 37 13 20 1008.5 1008.5 0.0
04/12:00pm 20.1 16.1 10.5 54 5.2 N 22 33 12 18 1009.6 1009.6 0.0
04/11:30am 18.7 13.9 10.3 58 4.5 N 26 35 14 19 1010.7 1010.7 0.0
04/11:00am 17.6 13.1 10.0 61 4.0 N 24 35 13 19 1011.0 1011.0 0.0
04/10:30am 16.1 12.2 9.5 65 3.4 N 20 37 11 20 1011.3 1011.3 0.0
04/10:00am 15.7 12.8 9.6 67 3.2 N 15 28 8 15 1011.9 1011.9 0.0
04/09:30am 14.3 11.3 9.3 72 2.6 N 15 24 8 13 1012.6 1012.6 0.0
04/09:00am 12.6 9.1 8.9 78 1.9 N 17 22 9 12 1012.8 1012.8 0.2
04/08:30am 11.6 8.4 8.3 80 1.6 NNE 15 22 8 12 1012.8 1012.8 0.2
04/08:00am 9.7 6.3 7.5 86 1.0 N 15 19 8 10 1013.2 1013.2 0.2
04/07:30am 8.7 5.5 7.0 89 0.8 N 13 17 7 9 1013.5 1013.5 0.2
04/07:00am 8.2 5.7 6.7 90 0.7 N 9 15 5 8 1014.0 1014.0 0.2
04/06:30am 8.3 5.5 6.8 90 0.7 N 11 15 6 8 1014.4 1014.4 0.2
04/06:00am 8.4 5.2 6.9 90 0.7 N 13 17 7 9 1014.3 1014.3 0.2
04/05:30am 8.4 5.3 7.2 92 0.6 N 13 20 7 11 1014.1 1014.1 0.2
04/05:00am 8.4 5.4 7.5 94 0.4 N 13 19 7 10 1014.5 1014.5 0.2
04/04:30am 8.2 5.6 7.6 96 0.3 N 11 15 6 8 1014.8 1014.8 0.2
04/04:00am 8.5 6.0 8.1 97 0.2 N 11 15 6 8 1014.7 1014.7 0.2
04/03:30am 8.4 6.6 8.0 97 0.2 N 7 9 4 5 1014.9 1014.9 0.2
04/03:00am 9.1 6.4 8.8 98 0.1 N 13 19 7 10 1015.0 1015.0 0.0
04/02:30am 9.3 7.1 9.2 99 0.0 NNE 11 15 6 8 1015.4 1015.4 0.0
04/02:00am 8.9 7.3 8.8 99 0.0 NNE 7 9 4 5 1015.9 1015.9 0.0
04/01:30am 9.0 7.1 8.9 99 0.0 NNE 9 13 5 7 1016.2 1016.2 0.0
04/01:00am 8.8 7.4 8.7 99 0.0 NNE 6 9 3 5 1016.7 1016.7 0.0
04/12:30am 9.3 7.8 9.2 99 0.0 NNE 7 11 4 6 1016.9 1016.9 0.0
04/12:00am 9.5 8.0 9.2 98 0.1 NNE 7 11 4 6 1017.0 1017.0 0.0
 
Date/Time
EST
Temp
°C
App
Temp
°C
Dew
Point
Rel
Hum
%
Delta-T
°C
Wind Press
QNH
hPa
Press
MSL
hPa
Rain
since 9 am
mm
Dir
 
Spd
km/h
Gust
km/h
Spd
kts
Gust
kts
03/11:30pm 9.1 7.5 8.8 98 0.1 N 7 9 4 5 1017.3 1017.3 0.0
03/11:00pm 9.2 7.8 8.9 98 0.1 NNE 6 9 3 5 1017.5 1017.5 0.0
03/10:30pm 8.9 7.2 8.5 97 0.2 N 7 9 4 5 1017.7 1017.7 0.0
03/10:00pm 9.1 8.0 8.5 96 0.3 N 4 6 2 3 1017.7 1017.7 0.0
03/09:30pm 9.7 8.4 9.1 96 0.3 N 6 6 3 3 1018.1 1018.1 0.0
03/09:00pm 9.7 8.7 8.9 95 0.4 NNW 4 6 2 3 1018.2 1018.2 0.0
03/08:30pm 10.4 10.3 9.5 94 0.4 CALM 0 0 0 0 1018.3 1018.3 0.0
03/08:00pm 11.2 11.3 10.3 94 0.5 CALM 0 0 0 0 1018.1 1018.1 0.0
03/07:30pm 11.2 11.3 10.0 92 0.6 CALM 0 0 0 0 1018.4 1018.4 0.0
03/07:00pm 11.9 12.1 10.5 91 0.7 CALM 0 2 0 1 1018.3 1018.3 0.0
03/06:30pm 12.2 12.4 10.4 89 0.9 CALM 0 0 0 0 1018.2 1018.2 0.0
03/06:00pm 12.6 11.6 10.3 86 1.2 WSW 6 7 3 4 1018.2 1018.2 0.0
03/05:30pm 13.6 12.8 11.0 84 1.4 WSW 6 9 3 5 1018.0 1018.0 0.0
03/05:00pm 14.0 12.8 11.7 86 1.2 WSW 9 11 5 6 1018.2 1018.2 0.0
03/04:30pm 14.8 13.7 11.9 83 1.6 SW 9 13 5 7 1018.3 1018.3 0.0
03/04:00pm 14.5 12.3 12.2 86 1.2 WSW 15 20 8 11 1018.5 1018.5 0.0
03/03:30pm 14.0 12.6 12.2 89 1.0 WSW 11 17 6 9 1018.6 1018.6 0.0
03/03:00pm 14.9 12.7 12.0 83 1.6 WSW 15 20 8 11 1018.6 1018.6 0.0
03/02:30pm 15.2 12.6 12.0 81 1.7 WSW 17 20 9 11 1018.6 1018.6 0.0
03/02:00pm 15.2 12.4 11.4 78 2.0 WSW 17 20 9 11 1018.5 1018.5 0.0
03/01:30pm 15.5 13.1 11.5 77 2.2 WSW 15 19 8 10 1018.9 1018.9 0.0
03/01:00pm 15.5 12.6 12.3 81 1.7 WSW 19 22 10 12 1019.0 1019.0 0.0
03/12:30pm 15.4 13.1 11.8 79 1.9 WSW 15 20 8 11 1019.1 1019.1 0.0
03/12:00pm 15.4 13.7 12.3 82 1.7 WSW 13 19 7 10 1019.3 1019.3 0.0
03/11:30am 15.1 12.6 12.2 83 1.6 W 17 22 9 12 1019.7 1019.7 0.0
03/11:00am 15.1 13.5 12.8 86 1.3 W 13 17 7 9 1019.5 1019.5 0.0
03/10:30am 14.7 14.0 13.1 90 0.9 W 9 15 5 8 1019.5 1019.5 0.0
03/10:00am 14.3 13.2 13.2 93 0.6 WNW 11 19 6 10 1019.7 1019.7 0.0
03/09:30am 14.0 13.5 13.7 98 0.2 NW 9 15 5 8 1019.8 1019.8 0.0
03/09:00am 12.7 11.8 12.5 99 0.1 NW 9 15 5 8 1019.7 1019.7 1.2
03/08:30am 12.3 10.9 12.1 99 0.1 NNW 11 17 6 9 1019.7 1019.7 1.2
03/08:00am 12.1 11.0 11.9 99 0.1 NW 9 15 5 8 1019.4 1019.4 1.2
03/07:30am 12.0 11.2 11.8 99 0.1 NW 7 13 4 7 1018.7 1018.7 1.2
03/07:00am 11.5 10.2 11.2 98 0.2 NW 9 13 5 7 1018.5 1018.5 1.2
03/06:30am 12.0 10.8 11.7 98 0.2 NW 9 15 5 8 1018.4 1018.4 1.0
03/06:00am 11.8 10.6 11.5 98 0.2 NNW 9 17 5 9 1018.1 1018.1 1.0
03/05:30am 12.1 11.3 11.8 98 0.2 NW 7 13 4 7 1017.9 1017.9 1.0
03/05:00am 12.0 10.8 11.5 97 0.3 NW 9 15 5 8 1017.7 1017.7 1.0
03/04:30am 12.2 10.6 11.7 97 0.3 NW 11 15 6 8 1017.5 1017.5 0.8
03/04:00am 11.6 9.8 11.0 96 0.3 NW 11 17 6 9 1017.5 1017.5 0.8
03/03:30am 11.7 10.0 11.1 96 0.3 NW 11 15 6 8 1017.4 1017.4 0.8
03/03:00am 12.0 10.4 11.4 96 0.3 NW 11 17 6 9 1017.4 1017.4 0.8
03/02:30am 11.9 10.2 11.1 95 0.4 NW 11 17 6 9 1017.4 1017.4 0.8
03/02:00am 11.9 10.2 11.1 95 0.4 NNW 11 17 6 9 1017.6 1017.6 0.8
03/01:30am 11.4 9.5 10.6 95 0.4 NNW 11 17 6 9 1017.3 1017.3 0.8
03/01:00am 11.7 10.3 10.8 94 0.5 NNW 9 13 5 7 1017.0 1017.0 0.8
03/12:30am 12.1 10.8 11.2 94 0.5 NNW 9 13 5 7 1017.2 1017.2 0.8
03/12:00am 12.1 10.7 11.0 93 0.6 NNW 9 11 5 6 1017.3 1017.3 0.8
 
Date/Time
EST
Temp
°C
App
Temp
°C
Dew
Point
Rel
Hum
%
Delta-T
°C
Wind Press
QNH
hPa
Press
MSL
hPa
Rain
since 9 am
mm
Dir
 
Spd
km/h
Gust
km/h
Spd
kts
Gust
kts
02/11:30pm 12.5 11.2 11.4 93 0.6 NW 9 13 5 7 1017.2 1017.2 0.8
02/11:00pm 12.8 11.9 11.5 92 0.7 NW 7 13 4 7 1017.2 1017.2 0.8
02/10:30pm 12.8 11.6 11.5 92 0.7 NNW 9 17 5 9 1017.3 1017.3 0.8
02/10:00pm 12.5 11.6 11.2 92 0.7 NW 7 11 4 6 1017.1 1017.1 0.8
02/09:30pm 12.4 11.0 11.0 91 0.7 NW 9 11 5 6 1016.9 1016.9 0.8
02/09:00pm 12.7 11.7 11.1 90 0.8 NW 7 11 4 6 1016.9 1016.9 0.8
02/08:30pm 13.2 11.6 11.6 90 0.9 NNW 11 17 6 9 1016.4 1016.4 0.8
02/08:00pm 13.6 12.6 12.2 91 0.8 NNW 9 15 5 8 1016.3 1016.3 0.8
02/07:30pm 13.2 11.7 11.8 91 0.7 NW 11 17 6 9 1015.9 1015.9 0.8
02/07:00pm 13.2 12.4 11.8 91 0.7 NW 7 11 4 6 1015.6 1015.6 0.8
02/06:30pm 13.5 12.0 11.9 90 0.9 NNW 11 20 6 11 1015.3 1015.3 0.8
02/06:00pm 13.8 12.8 12.4 91 0.8 NW 9 13 5 7 1014.9 1014.9 0.8
02/05:30pm 14.6 13.1 13.0 90 0.9 NW 13 22 7 12 1014.8 1014.8 0.8
02/05:00pm 16.4 15.8 12.2 76 2.3 NW 7 11 4 6 1014.3 1014.3 0.0
02/04:30pm 17.0 15.9 12.1 73 2.7 NW 9 19 5 10 1014.2 1014.2 0.0
02/04:00pm 17.4 15.0 11.4 68 3.3 WNW 15 24 8 13 1013.9 1013.9 0.0
02/03:30pm 17.8 14.6 11.8 68 3.3 NW 20 35 11 19 1013.8 1013.8 0.0
02/03:00pm 17.7 14.6 11.5 67 3.4 NW 19 30 10 16 1013.7 1013.7 0.0
02/02:30pm 16.6 13.5 12.2 75 2.4 WNW 20 32 11 17 1014.0 1014.0 0.0
02/02:12pm 15.5 10.7 11.7 78 2.1 WNW 28 48 15 26 1014.0 1014.0 0.0
02/02:00pm 15.8 12.0 12.5 81 1.8 W 24 35 13 19 1013.9 1013.9 0.0
02/01:30pm 15.5 12.0 12.1 80 1.9 W 22 33 12 18 1013.6 1013.6 0.0

Other Formats:

Comma delimited format used in spreadsheet applications
http://www.bom.gov.au/fwo/IDV60801/IDV60801.94830.axf

JavaScript Object Notation format (JSON) in row-major order
http://www.bom.gov.au/fwo/IDV60801/IDV60801.94830.json